createdAt,value
2019-03-03T00:01:02.735Z,89.15
2019-03-03T00:05:08.153Z,89.34
2019-03-03T00:09:10.064Z,89.16
2019-03-03T00:13:13.552Z,89.09
2019-03-03T00:17:15.547Z,89.00
2019-03-03T00:21:17.445Z,89.35
2019-03-03T00:25:19.349Z,88.87
2019-03-03T00:29:22.156Z,88.97
2019-03-03T00:33:24.072Z,89.26
2019-03-03T00:37:27.594Z,89.00
2019-03-03T00:41:34.214Z,88.83
2019-03-03T00:45:37.763Z,88.85
2019-03-03T00:49:41.310Z,88.54
2019-03-03T00:54:01.567Z,88.69
2019-03-03T00:58:10.817Z,88.37
2019-03-03T01:02:33.716Z,88.23
2019-03-03T01:06:53.377Z,87.89
2019-03-03T01:10:56.931Z,87.96
2019-03-03T01:15:00.481Z,88.05
2019-03-03T01:19:10.117Z,87.82
2019-03-03T01:23:11.794Z,87.58
2019-03-03T01:27:13.681Z,87.55
2019-03-03T01:31:15.859Z,87.37
2019-03-03T01:35:17.835Z,86.59
2019-03-03T01:39:19.742Z,86.89
2019-03-03T01:43:22.386Z,86.40
2019-03-03T01:47:24.276Z,85.93
2019-03-03T01:51:26.185Z,85.91
2019-03-03T01:55:28.112Z,85.82
2019-03-03T01:59:30.028Z,85.68
2019-03-03T02:03:33.578Z,85.72
2019-03-03T02:07:35.470Z,86.03
2019-03-03T02:11:37.398Z,85.89
2019-03-03T02:15:39.290Z,86.02
2019-03-03T02:19:41.266Z,85.92
2019-03-03T02:23:43.249Z,86.06
2019-03-03T02:27:45.150Z,85.98
2019-03-03T02:31:47.051Z,85.42
2019-03-03T02:35:48.958Z,84.89
2019-03-03T02:39:50.864Z,85.00
2019-03-03T02:43:52.776Z,84.95
2019-03-03T02:47:54.668Z,85.02
2019-03-03T02:51:56.588Z,84.99
2019-03-03T02:55:58.492Z,84.00
2019-03-03T03:00:00.507Z,83.93
2019-03-03T03:04:02.494Z,82.79
2019-03-03T03:08:06.229Z,81.92
2019-03-03T03:12:09.784Z,80.80
2019-03-03T03:16:19.158Z,80.29
2019-03-03T03:20:42.486Z,80.43
2019-03-03T03:25:04.663Z,78.76
2019-03-03T03:29:24.024Z,77.47
2019-03-03T03:33:36.534Z,76.35
2019-03-03T03:37:40.066Z,76.11
2019-03-03T03:41:55.667Z,76.63
2019-03-03T03:45:59.994Z,76.91
2019-03-03T03:50:03.538Z,77.12
2019-03-03T03:54:09.822Z,77.22
2019-03-03T03:58:29.230Z,77.92
2019-03-03T04:02:45.243Z,78.37
2019-03-03T04:06:51.571Z,78.77
2019-03-03T04:11:00.694Z,79.04
2019-03-03T04:15:04.236Z,79.24
2019-03-03T04:19:24.104Z,79.56
2019-03-03T04:23:27.644Z,79.83
2019-03-03T04:27:31.187Z,79.75
2019-03-03T04:31:37.667Z,79.63
2019-03-03T04:35:41.250Z,79.02
2019-03-03T04:39:44.783Z,79.09
2019-03-03T04:43:50.805Z,79.19
2019-03-03T04:48:03.180Z,78.52
2019-03-03T04:52:06.702Z,78.99
2019-03-03T04:56:26.238Z,79.16
2019-03-03T05:00:38.479Z,79.32
2019-03-03T05:04:44.761Z,78.42
2019-03-03T05:08:51.033Z,78.87
2019-03-03T05:13:00.381Z,79.37
2019-03-03T05:17:08.704Z,79.31
2019-03-03T05:21:10.300Z,79.18
2019-03-03T05:25:12.204Z,79.34
2019-03-03T05:29:14.110Z,78.83
2019-03-03T05:33:16.113Z,78.09
2019-03-03T05:37:18.139Z,77.96
2019-03-03T05:41:20.065Z,76.98
2019-03-03T05:45:22.527Z,76.92
2019-03-03T05:49:24.447Z,76.83
2019-03-03T05:53:26.349Z,76.63
2019-03-03T05:57:28.237Z,76.96
2019-03-03T06:01:30.140Z,76.81
2019-03-03T06:05:32.040Z,76.46
2019-03-03T06:09:33.944Z,76.54
2019-03-03T06:13:35.824Z,75.96
2019-03-03T06:17:37.737Z,76.47
2019-03-03T06:21:39.801Z,76.47
2019-03-03T06:25:41.695Z,76.58
2019-03-03T06:29:43.610Z,75.26
2019-03-03T06:33:45.508Z,75.88
2019-03-03T06:37:47.452Z,76.37
2019-03-03T06:41:49.364Z,75.72
2019-03-03T06:45:51.259Z,76.12
2019-03-03T06:49:53.209Z,75.17
2019-03-03T06:53:55.853Z,74.92
2019-03-03T06:57:58.441Z,74.55
2019-03-03T07:02:16.214Z,74.09
2019-03-03T07:06:18.126Z,74.37
2019-03-03T07:10:20.066Z,72.85
2019-03-03T07:14:22.539Z,73.24
2019-03-03T07:18:24.438Z,72.25
2019-03-03T07:22:26.344Z,71.80
2019-03-03T07:26:28.249Z,72.09
2019-03-03T07:30:30.156Z,71.50
2019-03-03T07:34:32.069Z,72.06
2019-03-03T07:38:33.949Z,70.88
2019-03-03T07:42:36.063Z,70.90
2019-03-03T07:46:38.064Z,70.11
2019-03-03T07:50:40.019Z,69.86
2019-03-03T07:54:42.191Z,70.30
2019-03-03T07:58:44.077Z,69.70
2019-03-03T08:02:46.040Z,70.47
2019-03-03T08:06:48.020Z,70.17
2019-03-03T08:10:49.945Z,69.19
2019-03-03T08:14:51.835Z,70.34
2019-03-03T08:18:53.720Z,69.94
2019-03-03T08:22:55.633Z,70.05
2019-03-03T08:26:57.527Z,69.98
2019-03-03T08:30:59.430Z,70.57
2019-03-03T08:35:01.497Z,69.49
2019-03-03T08:39:04.599Z,69.96
2019-03-03T08:43:08.606Z,69.52
2019-03-03T08:47:12.209Z,70.07
2019-03-03T08:51:14.232Z,69.86
2019-03-03T08:55:20.660Z,70.14
2019-03-03T08:59:39.217Z,69.87
2019-03-03T09:03:42.794Z,69.91
2019-03-03T09:07:55.332Z,69.60
2019-03-03T09:11:58.871Z,68.82
2019-03-03T09:16:04.861Z,69.26
2019-03-03T09:20:11.613Z,69.64
2019-03-03T09:24:15.155Z,69.67
2019-03-03T09:28:37.210Z,68.93
2019-03-03T09:32:56.928Z,69.60
2019-03-03T09:37:15.509Z,69.15
2019-03-03T09:41:17.177Z,70.00
2019-03-03T09:45:35.966Z,69.66
2019-03-03T09:49:49.657Z,69.01
2019-03-03T09:54:08.272Z,69.81
2019-03-03T09:58:27.932Z,70.49
2019-03-03T10:02:31.509Z,69.60
2019-03-03T10:06:44.002Z,69.60
2019-03-03T10:10:50.612Z,69.16
2019-03-03T10:15:12.504Z,69.48
2019-03-03T10:19:14.185Z,70.03
2019-03-03T10:23:33.986Z,69.21
2019-03-03T10:27:40.521Z,69.24
2019-03-03T10:32:01.927Z,68.88
2019-03-03T10:36:11.164Z,69.32
2019-03-03T10:40:31.258Z,69.12
2019-03-03T10:44:38.769Z,68.41
2019-03-03T10:48:42.318Z,67.79
2019-03-03T10:52:51.582Z,66.63
2019-03-03T10:57:11.355Z,66.00
2019-03-03T11:01:15.165Z,66.28
2019-03-03T11:05:34.874Z,65.57
2019-03-03T11:09:41.342Z,65.16
2019-03-03T11:13:52.091Z,64.53
2019-03-03T11:18:14.074Z,65.90
2019-03-03T11:22:20.366Z,64.24
2019-03-03T11:26:39.464Z,64.64
2019-03-03T11:30:53.046Z,64.51
2019-03-03T11:35:12.890Z,64.51
2019-03-03T11:39:26.172Z,65.42
2019-03-03T11:43:32.579Z,63.57
2019-03-03T11:47:52.300Z,64.24
2019-03-03T11:52:12.251Z,63.70
2019-03-03T11:56:16.178Z,63.70
2019-03-03T12:00:31.798Z,63.28
2019-03-03T12:04:44.003Z,62.50
2019-03-03T12:08:47.552Z,62.34
2019-03-03T12:13:03.264Z,62.34
2019-03-03T12:17:09.741Z,61.19
2019-03-03T12:21:29.477Z,61.60
2019-03-03T12:25:35.982Z,61.69
2019-03-03T12:29:45.245Z,61.76
2019-03-03T12:34:04.054Z,61.84
2019-03-03T12:38:25.966Z,62.36
2019-03-03T12:42:34.957Z,63.04
2019-03-03T12:46:38.527Z,62.76
2019-03-03T12:50:46.050Z,62.56
2019-03-03T12:55:01.804Z,62.60
2019-03-03T12:59:17.287Z,62.33
2019-03-03T13:03:23.564Z,62.52
2019-03-03T13:07:35.948Z,61.30
2019-03-03T13:11:55.849Z,61.13
2019-03-03T13:16:12.614Z,61.74
2019-03-03T13:20:19.165Z,61.36
2019-03-03T13:24:38.809Z,61.53
2019-03-03T13:28:45.386Z,61.16
2019-03-03T13:32:51.945Z,61.59
2019-03-03T13:36:55.504Z,61.08
2019-03-03T13:41:14.962Z,61.18
2019-03-03T13:45:16.887Z,61.30
2019-03-03T13:49:18.811Z,61.41
2019-03-03T13:53:20.862Z,61.12
2019-03-03T13:57:22.905Z,61.61
2019-03-03T14:01:24.974Z,61.04
2019-03-03T14:05:26.950Z,60.90
2019-03-03T14:09:28.862Z,61.06
2019-03-03T14:13:30.782Z,61.33
2019-03-03T14:17:32.679Z,61.52
2019-03-03T14:21:34.773Z,61.74
2019-03-03T14:25:36.705Z,60.50
2019-03-03T14:29:38.620Z,61.35
2019-03-03T14:33:40.519Z,61.01
2019-03-03T14:37:42.577Z,61.65
2019-03-03T14:41:44.539Z,61.60
2019-03-03T14:45:46.466Z,61.59
2019-03-03T14:49:48.605Z,62.11
2019-03-03T14:53:50.501Z,61.77
2019-03-03T14:57:52.415Z,62.08
2019-03-03T15:01:54.321Z,61.97
2019-03-03T15:05:56.245Z,62.12
2019-03-03T15:09:58.165Z,61.85
2019-03-03T15:14:00.080Z,61.48
2019-03-03T15:18:02.073Z,62.14
2019-03-03T15:22:04.208Z,61.91
2019-03-03T15:26:06.122Z,61.59
2019-03-03T15:30:15.234Z,61.61
2019-03-03T15:34:17.268Z,61.41
2019-03-03T15:38:19.187Z,62.21
2019-03-03T15:42:21.456Z,61.54
2019-03-03T15:46:23.375Z,61.32
2019-03-03T15:50:25.439Z,61.58
2019-03-03T15:54:27.359Z,61.36
2019-03-03T15:58:29.281Z,61.56
2019-03-03T16:02:31.182Z,62.03
2019-03-03T16:06:33.100Z,62.11
2019-03-03T16:10:35.022Z,62.13
2019-03-03T16:14:36.922Z,61.89
2019-03-03T16:18:38.837Z,62.77
2019-03-03T16:22:40.949Z,62.48
2019-03-03T16:26:42.870Z,62.66
2019-03-03T16:30:44.784Z,62.37
2019-03-03T16:34:46.764Z,62.02
2019-03-03T16:38:48.676Z,62.09
2019-03-03T16:42:50.645Z,62.35
2019-03-03T16:46:52.564Z,62.88
2019-03-03T16:50:54.471Z,62.20
2019-03-03T16:54:56.439Z,61.52
2019-03-03T16:58:58.352Z,61.87
2019-03-03T17:03:00.280Z,62.53
2019-03-03T17:07:02.207Z,62.80
2019-03-03T17:11:04.133Z,62.59
2019-03-03T17:15:10.758Z,62.63
2019-03-03T17:19:12.696Z,62.28
2019-03-03T17:23:14.597Z,62.33
2019-03-03T17:27:16.518Z,62.63
2019-03-03T17:31:18.605Z,63.11
2019-03-03T17:35:20.501Z,63.01
2019-03-03T17:39:23.060Z,62.86
2019-03-03T17:43:24.986Z,63.01
2019-03-03T17:47:27.976Z,62.59
2019-03-03T17:51:29.883Z,62.99
2019-03-03T17:55:31.822Z,63.12
2019-03-03T17:59:33.725Z,63.31
2019-03-03T18:03:35.645Z,63.44
2019-03-03T18:07:37.719Z,63.60
2019-03-03T18:11:39.677Z,63.02
2019-03-03T18:15:41.631Z,63.43
2019-03-03T18:19:43.941Z,63.21
2019-03-03T18:23:45.937Z,63.00
2019-03-03T18:27:47.951Z,62.94
2019-03-03T18:31:50.845Z,63.35
2019-03-03T18:35:53.771Z,63.59
2019-03-03T18:39:56.245Z,63.39
2019-03-03T18:43:58.145Z,63.87
2019-03-03T18:48:00.219Z,64.33
2019-03-03T18:52:02.121Z,64.18
2019-03-03T18:56:04.044Z,64.23
2019-03-03T19:00:14.519Z,64.79
2019-03-03T19:04:16.595Z,64.43
2019-03-03T19:08:18.565Z,64.68
2019-03-03T19:12:20.466Z,64.88
2019-03-03T19:16:23.051Z,65.15
2019-03-03T19:20:25.013Z,65.61
2019-03-03T19:24:26.925Z,65.45
2019-03-03T19:28:28.809Z,65.22
2019-03-03T19:32:30.712Z,65.09
2019-03-03T19:36:32.695Z,65.35
2019-03-03T19:40:34.744Z,65.43
2019-03-03T19:44:36.646Z,65.75
2019-03-03T19:48:38.737Z,65.94
2019-03-03T19:52:40.771Z,66.46
2019-03-03T19:56:42.689Z,66.44
2019-03-03T20:00:45.408Z,66.74
2019-03-03T20:04:47.431Z,66.66
2019-03-03T20:08:49.395Z,66.80
2019-03-03T20:12:51.972Z,66.41
2019-03-03T20:16:55.979Z,66.21
2019-03-03T20:20:57.462Z,66.10
2019-03-03T20:24:59.359Z,65.79
2019-03-03T20:29:01.628Z,66.20
2019-03-03T20:33:03.654Z,66.02
2019-03-03T20:37:05.626Z,66.05
2019-03-03T20:41:07.601Z,66.21
2019-03-03T20:45:30.051Z,65.54
2019-03-03T20:49:31.948Z,65.87
2019-03-03T20:53:33.856Z,66.35
2019-03-03T20:57:36.441Z,66.38
2019-03-03T21:01:38.476Z,66.57
2019-03-03T21:05:40.379Z,66.94
2019-03-03T21:09:42.373Z,66.80
2019-03-03T21:13:44.263Z,66.88
2019-03-03T21:17:46.235Z,67.10
2019-03-03T21:21:48.132Z,67.12
2019-03-03T21:25:51.000Z,66.77
2019-03-03T21:29:52.915Z,66.32
2019-03-03T21:33:54.801Z,66.58
2019-03-03T21:37:58.905Z,66.16
2019-03-03T21:42:02.251Z,66.52
2019-03-03T21:46:04.924Z,66.38
2019-03-03T21:50:13.922Z,66.50
2019-03-03T21:54:15.806Z,66.32
2019-03-03T21:58:18.740Z,66.25
2019-03-03T22:02:20.650Z,66.30
2019-03-03T22:06:23.190Z,66.40
2019-03-03T22:10:32.297Z,65.88
2019-03-03T22:14:34.183Z,66.23
2019-03-03T22:18:36.087Z,65.61
2019-03-03T22:22:37.992Z,65.04
2019-03-03T22:26:39.892Z,65.31
2019-03-03T22:30:41.899Z,65.54
2019-03-03T22:34:43.885Z,65.17
2019-03-03T22:38:45.843Z,64.86
2019-03-03T22:42:48.722Z,64.93
2019-03-03T22:46:50.645Z,64.47
2019-03-03T22:50:52.543Z,65.35
2019-03-03T22:54:54.429Z,65.03
2019-03-03T22:58:56.434Z,65.13
2019-03-03T23:02:58.450Z,64.28
2019-03-03T23:07:13.254Z,64.39
2019-03-03T23:11:30.817Z,64.60
2019-03-03T23:15:55.073Z,64.96
2019-03-03T23:20:26.083Z,64.88
2019-03-03T23:24:50.681Z,64.70
2019-03-03T23:28:52.583Z,64.94
2019-03-03T23:32:54.502Z,64.93
2019-03-03T23:36:56.397Z,65.12
2019-03-03T23:41:17.016Z,64.75
2019-03-03T23:45:19.905Z,64.78
2019-03-03T23:49:23.043Z,64.71
2019-03-03T23:53:25.083Z,64.86
2019-03-03T23:57:26.982Z,64.84
